createdAt,value
2022-11-05T00:02:24.027Z,19.95
2022-11-05T00:05:09.727Z,19.25
2022-11-05T00:08:00.509Z,20.65
2022-11-05T00:10:34.599Z,21.35
2022-11-05T00:13:20.454Z,17.63
2022-11-05T00:16:06.405Z,23.27
2022-11-05T00:18:33.408Z,27.58
2022-11-05T00:21:00.400Z,22.33
2022-11-05T00:23:46.098Z,23.10
2022-11-05T00:26:13.503Z,22.90
2022-11-05T00:28:43.628Z,25.92
2022-11-05T00:31:13.568Z,24.83
2022-11-05T00:33:42.963Z,29.98
2022-11-05T00:36:11.410Z,29.77
2022-11-05T00:38:38.506Z,26.70
2022-11-05T00:41:05.748Z,26.98
2022-11-05T00:43:51.135Z,22.52
2022-11-05T00:46:18.113Z,24.08
2022-11-05T00:49:03.748Z,27.85
2022-11-05T00:51:30.742Z,21.08
2022-11-05T00:53:57.771Z,26.15
2022-11-05T00:56:24.736Z,25.08
2022-11-05T00:58:51.702Z,24.02
2022-11-05T01:01:18.842Z,27.65
2022-11-05T01:03:51.320Z,32.03
2022-11-05T01:06:18.781Z,28.20
2022-11-05T01:08:46.784Z,26.58
2022-11-05T01:11:33.970Z,25.30
2022-11-05T01:14:02.719Z,25.45
2022-11-05T01:16:29.856Z,29.88
2022-11-05T01:18:56.994Z,27.23
2022-11-05T01:21:24.020Z,27.65
2022-11-05T01:23:51.011Z,27.55
2022-11-05T01:26:17.968Z,25.00
2022-11-05T01:28:45.079Z,37.30
2022-11-05T01:31:12.135Z,35.38
2022-11-05T01:33:39.105Z,30.95
2022-11-05T01:36:06.354Z,35.72
2022-11-05T01:38:33.321Z,34.83
2022-11-05T01:41:00.654Z,32.88
2022-11-05T01:44:05.012Z,29.23
2022-11-05T01:46:43.342Z,45.20
2022-11-05T01:49:27.633Z,31.98
2022-11-05T01:51:57.219Z,28.60
2022-11-05T01:54:27.891Z,26.85
2022-11-05T01:57:06.605Z,34.47
2022-11-05T01:59:38.438Z,30.10
2022-11-05T02:02:07.764Z,32.70
2022-11-05T02:04:40.032Z,30.60
2022-11-05T02:07:09.447Z,33.33
2022-11-05T02:09:47.780Z,31.73
2022-11-05T02:12:15.172Z,36.53
2022-11-05T02:14:42.346Z,36.67
2022-11-05T02:17:51.534Z,37.65
2022-11-05T02:20:38.828Z,31.83
2022-11-05T02:23:27.827Z,30.20
2022-11-05T02:26:03.874Z,36.95
2022-11-05T02:29:08.171Z,30.42
2022-11-05T02:31:48.463Z,35.60
2022-11-05T02:34:31.375Z,33.55
2022-11-05T02:37:12.036Z,30.52
2022-11-05T02:40:05.131Z,37.22
2022-11-05T02:45:48.519Z,37.58
2022-11-05T02:48:26.837Z,32.67
2022-11-05T02:51:41.523Z,35.47
2022-11-05T02:57:55.717Z,32.03
2022-11-05T03:00:47.130Z,32.65
2022-11-05T03:03:35.867Z,32.15
2022-11-05T03:06:40.723Z,33.25
2022-11-05T03:09:45.182Z,38.38
2022-11-05T03:12:12.083Z,29.67
2022-11-05T03:14:45.420Z,31.98
2022-11-05T03:17:27.425Z,33.13
2022-11-05T03:20:06.951Z,29.00
2022-11-05T03:22:54.090Z,36.80
2022-11-05T03:25:24.148Z,32.58
2022-11-05T03:27:56.039Z,42.28
2022-11-05T03:30:25.075Z,36.70
2022-11-05T03:33:00.606Z,35.75
2022-11-05T03:35:37.492Z,39.78
2022-11-05T03:38:11.847Z,43.25
2022-11-05T03:40:41.317Z,33.10
2022-11-05T03:43:09.811Z,31.67
2022-11-05T03:45:57.288Z,34.10
2022-11-05T03:48:28.451Z,35.83
2022-11-05T03:51:02.588Z,30.88
2022-11-05T03:53:34.945Z,39.55
2022-11-05T03:56:07.697Z,33.03
2022-11-05T03:58:36.213Z,33.88
2022-11-05T04:01:03.808Z,37.83
2022-11-05T04:03:36.386Z,43.55
2022-11-05T04:06:25.015Z,38.53
2022-11-05T04:09:24.433Z,40.15
2022-11-05T04:12:10.012Z,38.33
2022-11-05T04:14:39.481Z,44.70
2022-11-05T04:17:06.489Z,40.17
2022-11-05T04:19:53.492Z,42.42
2022-11-05T04:22:39.575Z,46.53
2022-11-05T04:25:06.945Z,39.47
2022-11-05T04:27:34.227Z,45.35
2022-11-05T04:30:19.870Z,42.75
2022-11-05T04:32:59.127Z,41.40
2022-11-05T04:35:28.427Z,40.95
2022-11-05T04:37:55.524Z,37.25
2022-11-05T04:40:23.135Z,39.90
2022-11-05T04:42:50.323Z,47.83
2022-11-05T04:45:17.337Z,45.17
2022-11-05T04:47:44.426Z,36.70
2022-11-05T04:50:12.161Z,42.83
2022-11-05T04:52:40.177Z,39.75
2022-11-05T04:55:07.885Z,36.83
2022-11-05T04:57:35.100Z,33.10
2022-11-05T05:00:02.208Z,37.83
2022-11-05T05:02:29.291Z,35.85
2022-11-05T05:04:56.263Z,40.55
2022-11-05T05:07:23.246Z,33.35
2022-11-05T05:09:50.266Z,43.33
2022-11-05T05:12:17.257Z,39.88
2022-11-05T05:14:44.330Z,34.22
2022-11-05T05:17:11.287Z,38.17
2022-11-05T05:19:56.963Z,46.50
2022-11-05T05:22:23.941Z,40.78
2022-11-05T05:24:52.888Z,37.28
2022-11-05T05:27:20.763Z,38.17
2022-11-05T05:29:47.711Z,42.60
2022-11-05T05:32:14.885Z,40.47
2022-11-05T05:34:41.868Z,33.53
2022-11-05T05:37:08.853Z,42.25
2022-11-05T05:39:35.819Z,34.42
2022-11-05T05:42:02.957Z,46.85
2022-11-05T05:44:30.042Z,35.50
2022-11-05T05:46:57.045Z,35.35
2022-11-05T05:49:24.193Z,42.63
2022-11-05T05:51:51.317Z,36.90
2022-11-05T05:54:18.389Z,48.13
2022-11-05T05:56:45.748Z,36.10
2022-11-05T05:59:12.711Z,41.15
2022-11-05T06:01:40.217Z,43.35
2022-11-05T06:04:07.374Z,37.42
2022-11-05T06:06:34.472Z,51.20
2022-11-05T06:09:01.635Z,46.92
2022-11-05T06:11:28.683Z,51.45
2022-11-05T06:13:55.886Z,53.97
2022-11-05T06:16:23.168Z,51.92
2022-11-05T06:18:50.202Z,46.97
2022-11-05T06:21:17.861Z,48.55
2022-11-05T06:23:45.635Z,49.03
2022-11-05T06:26:15.556Z,50.90
2022-11-05T06:28:43.252Z,48.85
2022-11-05T06:31:11.756Z,45.65
2022-11-05T06:33:39.600Z,46.97
2022-11-05T06:36:08.013Z,51.10
2022-11-05T06:38:36.644Z,48.75
2022-11-05T06:41:09.880Z,53.35
2022-11-05T06:43:37.955Z,71.50
2022-11-05T06:46:05.081Z,49.88
2022-11-05T06:48:32.389Z,44.92
2022-11-05T06:50:59.444Z,49.65
2022-11-05T06:53:26.651Z,52.92
2022-11-05T06:55:53.670Z,46.70
2022-11-05T06:58:20.723Z,58.55
2022-11-05T07:00:47.900Z,52.67
2022-11-05T07:03:15.391Z,57.83
2022-11-05T07:05:49.320Z,44.50
2022-11-05T07:08:16.890Z,45.72
2022-11-05T07:10:44.033Z,41.83
2022-11-05T07:13:11.616Z,44.47
2022-11-05T07:15:38.998Z,45.88
2022-11-05T07:18:09.336Z,43.25
2022-11-05T07:20:36.343Z,45.78
2022-11-05T07:23:07.481Z,42.00
2022-11-05T07:25:35.119Z,42.60
2022-11-05T07:28:02.683Z,44.10
2022-11-05T07:30:30.668Z,38.55
2022-11-05T07:32:57.905Z,40.25
2022-11-05T07:35:25.417Z,37.67
2022-11-05T07:37:54.660Z,43.22
2022-11-05T07:40:23.750Z,43.65
2022-11-05T07:42:53.341Z,48.33
2022-11-05T07:45:21.235Z,41.40
2022-11-05T07:47:49.974Z,45.22
2022-11-05T07:50:18.826Z,49.08
2022-11-05T07:52:47.769Z,38.60
2022-11-05T07:55:15.867Z,41.55
2022-11-05T07:57:44.179Z,43.97
2022-11-05T08:00:14.734Z,49.67
2022-11-05T08:02:42.709Z,37.40
2022-11-05T08:05:10.496Z,45.53
2022-11-05T08:07:37.512Z,41.85
2022-11-05T08:10:04.910Z,38.40
2022-11-05T08:12:32.487Z,34.88
2022-11-05T08:14:59.693Z,37.15
2022-11-05T08:17:26.818Z,34.67
2022-11-05T08:19:53.796Z,43.55
2022-11-05T08:22:20.780Z,37.00
2022-11-05T08:24:47.805Z,33.92
2022-11-05T08:27:14.837Z,35.78
2022-11-05T08:29:41.882Z,37.60
2022-11-05T08:32:09.035Z,24.45
2022-11-05T08:34:36.098Z,29.10
2022-11-05T08:37:03.551Z,25.80
2022-11-05T08:39:30.650Z,27.10
2022-11-05T08:41:57.672Z,26.38
2022-11-05T08:44:24.963Z,26.45
2022-11-05T08:46:51.995Z,35.58
2022-11-05T08:49:18.953Z,30.05
2022-11-05T08:51:46.001Z,26.70
2022-11-05T08:54:13.692Z,21.75
2022-11-05T08:56:40.797Z,24.63
2022-11-05T08:59:07.846Z,34.33
2022-11-05T09:01:35.204Z,20.83
2022-11-05T09:04:02.377Z,27.45
2022-11-05T09:06:29.725Z,30.55
2022-11-05T09:08:57.044Z,27.70
2022-11-05T09:11:37.772Z,27.70
2022-11-05T09:14:11.618Z,22.50
2022-11-05T09:16:38.643Z,22.10
2022-11-05T09:19:05.653Z,24.95
2022-11-05T09:21:32.727Z,29.67
2022-11-05T09:23:59.742Z,21.58
2022-11-05T09:26:27.092Z,26.50
2022-11-05T09:28:54.142Z,25.00
2022-11-05T09:31:22.066Z,28.85
2022-11-05T09:33:49.044Z,26.90
2022-11-05T09:36:16.144Z,28.75
2022-11-05T09:38:43.138Z,25.15
2022-11-05T09:41:31.147Z,29.35
2022-11-05T09:44:03.432Z,24.15
2022-11-05T09:46:45.352Z,28.73
2022-11-05T09:49:25.406Z,24.43
2022-11-05T09:51:55.405Z,28.55
2022-11-05T09:54:25.908Z,21.17
2022-11-05T09:56:53.858Z,23.60
2022-11-05T09:59:26.359Z,24.05
2022-11-05T10:02:17.839Z,46.75
2022-11-05T10:04:48.555Z,26.65
2022-11-05T10:07:21.365Z,25.90
2022-11-05T10:09:53.593Z,30.42
2022-11-05T10:12:43.293Z,28.23
2022-11-05T10:15:21.494Z,26.10
2022-11-05T10:17:54.121Z,22.27
2022-11-05T10:22:56.770Z,21.42
2022-11-05T10:25:31.781Z,19.55
2022-11-05T10:28:00.054Z,18.67
2022-11-05T10:30:27.077Z,26.65
2022-11-05T10:32:57.537Z,18.52
2022-11-05T10:35:28.846Z,17.65
2022-11-05T10:37:56.740Z,14.80
2022-11-05T10:40:49.102Z,17.27
2022-11-05T10:43:30.536Z,17.67
2022-11-05T10:46:32.514Z,19.48
2022-11-05T10:49:36.373Z,22.63
2022-11-05T10:52:18.664Z,16.45
2022-11-05T10:54:46.264Z,18.48
2022-11-05T10:57:39.424Z,14.13
2022-11-05T11:00:15.561Z,18.60
2022-11-05T11:02:47.640Z,18.42
2022-11-05T11:05:30.406Z,15.60
2022-11-05T11:10:32.706Z,17.45
2022-11-05T11:12:59.771Z,14.48
2022-11-05T11:15:35.094Z,12.57
2022-11-05T11:18:40.344Z,16.70
2022-11-05T11:21:14.479Z,14.15
2022-11-05T11:23:43.310Z,13.23
2022-11-05T11:26:11.573Z,7.63
2022-11-05T11:28:44.589Z,17.48
2022-11-05T11:31:15.681Z,8.98
2022-11-05T11:33:46.648Z,22.80
2022-11-05T11:36:18.365Z,10.05
2022-11-05T11:38:46.028Z,14.57
2022-11-05T11:41:26.829Z,7.80
2022-11-05T11:44:21.302Z,11.57
2022-11-05T11:46:53.975Z,10.75
2022-11-05T11:52:13.201Z,12.70
2022-11-05T11:54:40.265Z,11.20
2022-11-05T11:57:22.039Z,18.20
2022-11-05T12:00:14.625Z,13.52
2022-11-05T12:03:01.327Z,8.57
2022-11-05T12:05:47.703Z,15.25
2022-11-05T12:09:03.536Z,12.02
2022-11-05T12:11:45.601Z,17.60
2022-11-05T12:14:17.871Z,15.85
2022-11-05T12:17:04.630Z,6.47
2022-11-05T12:19:45.669Z,13.45
2022-11-05T12:22:21.860Z,20.52
2022-11-05T12:25:10.190Z,10.80
2022-11-05T12:28:02.054Z,17.55
2022-11-05T12:30:39.516Z,15.18
2022-11-05T12:33:18.947Z,8.68
2022-11-05T12:35:57.927Z,9.02
2022-11-05T12:38:30.955Z,9.60
2022-11-05T12:41:05.355Z,6.90
2022-11-05T12:44:01.055Z,18.60
2022-11-05T12:46:53.792Z,11.23
2022-11-05T12:49:39.267Z,6.85
2022-11-05T12:52:30.735Z,10.18
2022-11-05T12:55:00.989Z,12.05
2022-11-05T12:57:31.297Z,12.95
2022-11-05T13:00:20.329Z,17.48
2022-11-05T13:03:15.801Z,7.82
2022-11-05T13:06:14.084Z,6.57
2022-11-05T13:08:43.857Z,10.07
2022-11-05T13:11:22.589Z,14.73
2022-11-05T13:13:52.255Z,8.32
2022-11-05T13:16:30.734Z,16.77
2022-11-05T13:19:39.093Z,8.02
2022-11-05T13:22:30.164Z,12.05
2022-11-05T13:25:02.411Z,9.60
2022-11-05T13:27:44.714Z,9.07
2022-11-05T13:30:46.112Z,8.77
2022-11-05T13:33:21.991Z,7.68
2022-11-05T13:36:19.828Z,15.93
2022-11-05T13:39:00.022Z,9.95
2022-11-05T13:41:29.773Z,10.00
2022-11-05T13:44:15.479Z,6.07
2022-11-05T13:47:09.251Z,7.95
2022-11-05T13:50:06.982Z,9.82
2022-11-05T13:53:13.748Z,5.57
2022-11-05T13:56:01.430Z,9.38
2022-11-05T13:58:56.320Z,7.53
2022-11-05T14:01:41.463Z,5.88
2022-11-05T14:04:38.085Z,3.65
2022-11-05T14:07:19.575Z,9.15
2022-11-05T14:09:52.210Z,8.02
2022-11-05T14:15:03.564Z,6.95
2022-11-05T14:17:56.408Z,13.13
2022-11-05T14:20:30.861Z,4.13
2022-11-05T14:23:20.986Z,11.13
2022-11-05T14:25:50.768Z,8.02
2022-11-05T14:28:36.379Z,4.25
2022-11-05T14:31:20.193Z,7.05
2022-11-05T14:34:12.176Z,11.25
2022-11-05T14:36:39.965Z,8.60
2022-11-05T14:39:18.336Z,13.20
2022-11-05T14:41:53.404Z,6.40
2022-11-05T14:44:20.997Z,9.70
2022-11-05T14:46:51.740Z,6.72
2022-11-05T14:49:29.298Z,7.85
2022-11-05T14:51:59.714Z,9.27
2022-11-05T14:54:31.662Z,10.82
2022-11-05T14:57:00.637Z,3.22
2022-11-05T14:59:33.251Z,9.70
2022-11-05T15:04:42.661Z,12.35
2022-11-05T15:07:09.607Z,14.23
2022-11-05T15:09:42.592Z,6.13
2022-11-05T15:12:34.514Z,8.20
2022-11-05T15:15:21.473Z,7.38
2022-11-05T15:18:00.451Z,5.63
2022-11-05T15:20:38.846Z,9.32
2022-11-05T15:23:12.837Z,7.20
2022-11-05T15:25:52.945Z,3.88
2022-11-05T15:28:47.898Z,7.70
2022-11-05T15:31:14.825Z,8.23
2022-11-05T15:33:43.631Z,5.40
2022-11-05T15:36:19.605Z,8.68
2022-11-05T15:39:02.315Z,9.00
2022-11-05T15:41:34.624Z,16.63
2022-11-05T15:44:02.660Z,5.60
2022-11-05T15:46:29.873Z,10.40
2022-11-05T15:49:04.951Z,8.52
2022-11-05T15:51:32.047Z,11.63
2022-11-05T15:54:24.322Z,10.65
2022-11-05T15:56:53.058Z,14.35
2022-11-05T15:59:23.521Z,17.13
2022-11-05T16:01:56.480Z,5.07
2022-11-05T16:04:30.484Z,8.40
2022-11-05T16:07:00.794Z,8.20
2022-11-05T16:09:30.575Z,16.83
2022-11-05T16:12:14.058Z,24.45
2022-11-05T16:14:42.157Z,11.85
2022-11-05T16:17:25.213Z,14.13
2022-11-05T16:19:52.838Z,11.13
2022-11-05T16:22:20.213Z,8.45
2022-11-05T16:24:48.811Z,14.63
2022-11-05T16:27:21.031Z,12.27
2022-11-05T16:29:56.215Z,11.07
2022-11-05T16:32:30.763Z,8.38
2022-11-05T16:35:01.408Z,8.45
2022-11-05T16:37:31.575Z,13.88
2022-11-05T16:39:58.556Z,12.63
2022-11-05T16:42:37.593Z,12.13
2022-11-05T16:45:05.620Z,11.30
2022-11-05T16:47:32.900Z,14.30
2022-11-05T16:49:59.906Z,14.18
2022-11-05T16:52:27.045Z,12.55
2022-11-05T16:54:54.083Z,8.57
2022-11-05T16:57:30.813Z,9.30
2022-11-05T17:00:00.223Z,6.30
2022-11-05T17:02:27.928Z,6.47
2022-11-05T17:04:55.095Z,10.25
2022-11-05T17:07:22.072Z,9.38
2022-11-05T17:09:50.124Z,6.63
2022-11-05T17:12:17.285Z,11.93
2022-11-05T17:14:44.327Z,10.57
2022-11-05T17:17:11.403Z,9.60
2022-11-05T17:19:42.303Z,8.32
2022-11-05T17:22:09.481Z,10.05
2022-11-05T17:24:36.587Z,17.20
2022-11-05T17:27:03.617Z,6.97
2022-11-05T17:29:30.721Z,10.50
2022-11-05T17:31:57.832Z,13.30
2022-11-05T17:34:24.854Z,9.60
2022-11-05T17:36:51.948Z,7.38
2022-11-05T17:39:18.998Z,14.95
2022-11-05T17:41:46.138Z,9.85
2022-11-05T17:44:13.245Z,13.98
2022-11-05T17:46:40.235Z,10.55
2022-11-05T17:49:07.399Z,25.27
2022-11-05T17:51:34.892Z,12.60
2022-11-05T17:54:01.883Z,9.80
2022-11-05T17:56:34.364Z,12.18
2022-11-05T17:59:03.328Z,10.10
2022-11-05T18:01:33.373Z,12.82
2022-11-05T18:04:07.259Z,9.30
2022-11-05T18:06:38.029Z,12.35
2022-11-05T18:09:07.133Z,15.40
2022-11-05T18:11:35.252Z,8.82
2022-11-05T18:14:03.659Z,11.00
2022-11-05T18:16:31.001Z,12.45
2022-11-05T18:18:58.040Z,12.77
2022-11-05T18:21:25.059Z,19.05
2022-11-05T18:23:52.439Z,9.07
2022-11-05T18:26:19.599Z,14.80
2022-11-05T18:28:46.636Z,13.15
2022-11-05T18:31:21.425Z,10.18
2022-11-05T18:33:50.037Z,15.50
2022-11-05T18:36:22.868Z,8.15
2022-11-05T18:38:50.020Z,17.15
2022-11-05T18:41:18.016Z,11.75
2022-11-05T18:43:45.171Z,14.48
2022-11-05T18:46:29.158Z,16.60
2022-11-05T18:48:59.886Z,11.30
2022-11-05T18:51:27.783Z,10.23
2022-11-05T18:53:55.672Z,12.27
2022-11-05T18:56:23.189Z,11.43
2022-11-05T18:58:50.572Z,21.90
2022-11-05T19:01:20.455Z,14.75
2022-11-05T19:03:49.073Z,13.45
2022-11-05T19:06:16.303Z,15.57
2022-11-05T19:08:44.298Z,14.60
2022-11-05T19:11:14.357Z,17.33
2022-11-05T19:13:42.232Z,12.68
2022-11-05T19:16:12.872Z,27.52
2022-11-05T19:18:40.200Z,12.15
2022-11-05T19:21:12.508Z,21.40
2022-11-05T19:23:39.573Z,14.48
2022-11-05T19:26:11.688Z,12.98
2022-11-05T19:28:39.305Z,15.25
2022-11-05T19:31:06.984Z,13.10
2022-11-05T19:33:34.253Z,16.10
2022-11-05T19:36:04.721Z,12.30
2022-11-05T19:38:32.297Z,15.25
2022-11-05T19:41:02.498Z,22.13
2022-11-05T19:43:29.541Z,10.18
2022-11-05T19:45:56.536Z,15.77
2022-11-05T19:48:25.013Z,16.77
2022-11-05T19:50:52.238Z,13.27
2022-11-05T19:53:19.308Z,13.52
2022-11-05T19:55:46.378Z,15.20
2022-11-05T19:58:13.946Z,15.75
2022-11-05T20:00:41.179Z,15.45
2022-11-05T20:03:08.443Z,13.05
2022-11-05T20:05:35.539Z,14.77
2022-11-05T20:08:02.592Z,16.23
2022-11-05T20:10:29.687Z,15.25
2022-11-05T20:12:56.813Z,12.45
2022-11-05T20:15:23.857Z,20.23
2022-11-05T20:17:52.554Z,14.65
2022-11-05T20:20:20.063Z,13.18
2022-11-05T20:22:47.096Z,14.38
2022-11-05T20:25:14.105Z,12.82
2022-11-05T20:27:41.981Z,10.00
2022-11-05T20:30:09.788Z,14.70
2022-11-05T20:32:36.800Z,15.52
2022-11-05T20:35:04.045Z,12.63
2022-11-05T20:37:31.036Z,11.68
2022-11-05T20:39:58.285Z,13.48
2022-11-05T20:42:25.305Z,13.85
2022-11-05T20:44:52.369Z,19.42
2022-11-05T20:47:19.345Z,14.35
2022-11-05T20:49:46.352Z,27.85
2022-11-05T20:52:16.798Z,16.67
2022-11-05T20:54:44.205Z,20.05
2022-11-05T20:57:11.234Z,16.42
2022-11-05T20:59:38.289Z,16.75
2022-11-05T21:02:05.446Z,15.93
2022-11-05T21:04:32.668Z,20.80
2022-11-05T21:06:59.699Z,18.10
2022-11-05T21:09:26.929Z,17.77
2022-11-05T21:12:12.189Z,16.80
2022-11-05T21:14:40.747Z,14.40
2022-11-05T21:17:09.790Z,20.52
2022-11-05T21:19:37.699Z,16.17
2022-11-05T21:22:06.024Z,18.88
2022-11-05T21:24:34.124Z,13.52
2022-11-05T21:27:01.554Z,19.35
2022-11-05T21:29:28.511Z,15.52
2022-11-05T21:31:55.500Z,13.73
2022-11-05T21:34:22.600Z,17.00
2022-11-05T21:36:51.402Z,14.77
2022-11-05T21:39:19.177Z,17.92
2022-11-05T21:41:46.260Z,12.55
2022-11-05T21:44:13.242Z,14.77
2022-11-05T21:46:40.332Z,23.52
2022-11-05T21:49:07.574Z,13.32
2022-11-05T21:51:53.296Z,18.20
2022-11-05T21:54:38.897Z,20.67
2022-11-05T21:57:36.024Z,16.80
2022-11-05T22:00:08.545Z,20.95
2022-11-05T22:02:35.986Z,16.10
2022-11-05T22:05:04.204Z,13.88
2022-11-05T22:07:34.621Z,22.17
2022-11-05T22:10:03.084Z,23.52
2022-11-05T22:12:31.177Z,15.93
2022-11-05T22:14:58.203Z,19.40
2022-11-05T22:17:25.677Z,14.18
2022-11-05T22:19:52.870Z,15.82
2022-11-05T22:22:19.948Z,16.73
2022-11-05T22:24:47.018Z,13.02
2022-11-05T22:27:17.990Z,17.38
2022-11-05T22:29:46.095Z,13.30
2022-11-05T22:32:13.707Z,20.85
2022-11-05T22:34:40.846Z,14.27
2022-11-05T22:37:08.242Z,11.07
2022-11-05T22:39:35.303Z,17.40
2022-11-05T22:42:08.029Z,21.20
2022-11-05T22:44:36.829Z,17.95
2022-11-05T22:47:04.023Z,19.42
2022-11-05T22:49:31.404Z,19.52
2022-11-05T22:51:58.412Z,12.52
2022-11-05T22:54:25.400Z,12.20
2022-11-05T22:56:53.694Z,19.63
2022-11-05T22:59:20.730Z,11.45
2022-11-05T23:01:47.918Z,10.65
2022-11-05T23:04:15.631Z,12.55
2022-11-05T23:07:01.759Z,15.07
2022-11-05T23:09:49.755Z,10.68
2022-11-05T23:12:39.438Z,12.13
2022-11-05T23:15:07.856Z,17.98
2022-11-05T23:17:53.517Z,8.18
2022-11-05T23:20:41.939Z,16.88
2022-11-05T23:23:31.228Z,17.33
2022-11-05T23:26:21.313Z,15.52
2022-11-05T23:28:48.366Z,16.65
2022-11-05T23:31:34.001Z,11.30
2022-11-05T23:34:00.969Z,13.30
2022-11-05T23:36:46.276Z,16.55
2022-11-05T23:39:13.248Z,14.98
2022-11-05T23:41:58.541Z,12.55
2022-11-05T23:44:43.901Z,9.70
2022-11-05T23:47:29.530Z,18.08
2022-11-05T23:49:56.509Z,14.05
2022-11-05T23:52:23.545Z,13.93
2022-11-05T23:54:50.557Z,8.68
2022-11-05T23:57:17.529Z,10.07
2022-11-05T23:59:44.492Z,13.43
